sensor_id;sensor_type;location;lat;lon;timestamp;temperature;humidity
5924;DHT22;2987;50.884;14.818;2023-02-03T00:00:18;0.40;99.90
5924;DHT22;2987;50.884;14.818;2023-02-03T00:02:44;0.50;99.90
5924;DHT22;2987;50.884;14.818;2023-02-03T00:05:10;0.50;99.90
5924;DHT22;2987;50.884;14.818;2023-02-03T00:07:37;0.90;99.90
5924;DHT22;2987;50.884;14.818;2023-02-03T00:10:05;0.70;99.90
5924;DHT22;2987;50.884;14.818;2023-02-03T00:12:33;0.70;99.90
5924;DHT22;2987;50.884;14.818;2023-02-03T00:15:00;0.70;99.90
5924;DHT22;2987;50.884;14.818;2023-02-03T00:17:26;0.70;99.90
5924;DHT22;2987;50.884;14.818;2023-02-03T00:19:52;0.90;99.90
5924;DHT22;2987;50.884;14.818;2023-02-03T00:22:20;0.90;99.90
5924;DHT22;2987;50.884;14.818;2023-02-03T00:24:47;0.90;99.90
5924;DHT22;2987;50.884;14.818;2023-02-03T00:27:13;0.70;99.90
5924;DHT22;2987;50.884;14.818;2023-02-03T00:29:39;0.90;99.90
5924;DHT22;2987;50.884;14.818;2023-02-03T00:32:05;0.90;99.90
5924;DHT22;2987;50.884;14.818;2023-02-03T00:34:31;0.80;99.90
5924;DHT22;2987;50.884;14.818;2023-02-03T00:36:58;1.00;99.90
5924;DHT22;2987;50.884;14.818;2023-02-03T00:39:24;0.90;99.90
5924;DHT22;2987;50.884;14.818;2023-02-03T00:41:50;1.00;99.90
5924;DHT22;2987;50.884;14.818;2023-02-03T00:44:16;0.90;99.90
5924;DHT22;2987;50.884;14.818;2023-02-03T00:46:42;0.90;99.90
5924;DHT22;2987;50.884;14.818;2023-02-03T00:49:08;0.90;99.90
5924;DHT22;2987;50.884;14.818;2023-02-03T00:51:34;0.90;99.90
5924;DHT22;2987;50.884;14.818;2023-02-03T00:54:00;0.90;99.90
5924;DHT22;2987;50.884;14.818;2023-02-03T00:56:29;1.20;99.90
5924;DHT22;2987;50.884;14.818;2023-02-03T00:58:55;0.90;99.90
5924;DHT22;2987;50.884;14.818;2023-02-03T01:01:21;1.10;99.90
5924;DHT22;2987;50.884;14.818;2023-02-03T01:03:49;1.20;99.90
5924;DHT22;2987;50.884;14.818;2023-02-03T01:06:18;1.30;99.90
5924;DHT22;2987;50.884;14.818;2023-02-03T01:08:46;1.10;99.90
5924;DHT22;2987;50.884;14.818;2023-02-03T01:11:17;1.20;99.90
5924;DHT22;2987;50.884;14.818;2023-02-03T01:13:44;1.40;99.90
5924;DHT22;2987;50.884;14.818;2023-02-03T01:16:14;1.50;99.90
5924;DHT22;2987;50.884;14.818;2023-02-03T01:18:41;1.70;99.90
5924;DHT22;2987;50.884;14.818;2023-02-03T01:21:12;1.70;99.90
5924;DHT22;2987;50.884;14.818;2023-02-03T01:23:39;1.40;99.90
5924;DHT22;2987;50.884;14.818;2023-02-03T01:26:08;1.40;99.90
5924;DHT22;2987;50.884;14.818;2023-02-03T01:28:35;1.60;99.90
5924;DHT22;2987;50.884;14.818;2023-02-03T01:31:12;1.60;99.90
5924;DHT22;2987;50.884;14.818;2023-02-03T01:33:39;1.70;99.90
5924;DHT22;2987;50.884;14.818;2023-02-03T01:36:08;1.70;99.90
5924;DHT22;2987;50.884;14.818;2023-02-03T01:38:36;1.70;99.90
5924;DHT22;2987;50.884;14.818;2023-02-03T01:41:04;1.70;99.90
5924;DHT22;2987;50.884;14.818;2023-02-03T01:43:32;1.40;99.90
5924;DHT22;2987;50.884;14.818;2023-02-03T01:46:03;1.40;99.90
5924;DHT22;2987;50.884;14.818;2023-02-03T01:48:31;1.90;99.90
5924;DHT22;2987;50.884;14.818;2023-02-03T01:51:01;2.00;99.90
5924;DHT22;2987;50.884;14.818;2023-02-03T01:53:29;1.60;99.90
5924;DHT22;2987;50.884;14.818;2023-02-03T01:55:57;1.80;99.90
5924;DHT22;2987;50.884;14.818;2023-02-03T01:58:29;2.20;99.90
5924;DHT22;2987;50.884;14.818;2023-02-03T02:00:57;2.30;99.90
5924;DHT22;2987;50.884;14.818;2023-02-03T02:03:30;2.40;99.90
5924;DHT22;2987;50.884;14.818;2023-02-03T02:06:05;2.40;99.90
5924;DHT22;2987;50.884;14.818;2023-02-03T02:08:32;2.00;99.90
5924;DHT22;2987;50.884;14.818;2023-02-03T02:10:59;2.20;99.90
5924;DHT22;2987;50.884;14.818;2023-02-03T02:13:29;2.20;99.90
5924;DHT22;2987;50.884;14.818;2023-02-03T02:16:08;2.20;99.90
5924;DHT22;2987;50.884;14.818;2023-02-03T02:18:59;2.30;99.90
5924;DHT22;2987;50.884;14.818;2023-02-03T02:21:56;2.10;99.90
5924;DHT22;2987;50.884;14.818;2023-02-03T02:24:50;2.20;99.90
5924;DHT22;2987;50.884;14.818;2023-02-03T02:30:17;2.40;99.90
5924;DHT22;2987;50.884;14.818;2023-02-03T02:46:40;2.20;99.90
5924;DHT22;2987;50.884;14.818;2023-02-03T02:49:13;2.50;99.90
5924;DHT22;2987;50.884;14.818;2023-02-03T02:51:42;2.30;99.90
5924;DHT22;2987;50.884;14.818;2023-02-03T02:54:16;2.60;99.90
5924;DHT22;2987;50.884;14.818;2023-02-03T02:56:47;2.50;99.90
5924;DHT22;2987;50.884;14.818;2023-02-03T02:59:15;2.30;99.90
5924;DHT22;2987;50.884;14.818;2023-02-03T03:01:44;2.50;99.90
5924;DHT22;2987;50.884;14.818;2023-02-03T03:04:12;2.50;99.90
5924;DHT22;2987;50.884;14.818;2023-02-03T03:06:46;2.40;99.90
5924;DHT22;2987;50.884;14.818;2023-02-03T03:09:21;2.40;99.90
5924;DHT22;2987;50.884;14.818;2023-02-03T03:11:50;2.40;99.90
5924;DHT22;2987;50.884;14.818;2023-02-03T03:14:19;2.40;99.90
5924;DHT22;2987;50.884;14.818;2023-02-03T03:16:55;2.50;99.90
5924;DHT22;2987;50.884;14.818;2023-02-03T03:19:26;2.40;99.90
5924;DHT22;2987;50.884;14.818;2023-02-03T03:21:56;2.10;99.90
5924;DHT22;2987;50.884;14.818;2023-02-03T03:24:28;2.20;99.90
5924;DHT22;2987;50.884;14.818;2023-02-03T03:29:54;2.40;99.90
5924;DHT22;2987;50.884;14.818;2023-02-03T03:34:48;2.10;99.90
5924;DHT22;2987;50.884;14.818;2023-02-03T03:37:23;2.40;99.90
5924;DHT22;2987;50.884;14.818;2023-02-03T03:39:55;1.90;99.90
5924;DHT22;2987;50.884;14.818;2023-02-03T03:44:57;1.90;99.90
5924;DHT22;2987;50.884;14.818;2023-02-03T03:47:31;2.40;99.90
5924;DHT22;2987;50.884;14.818;2023-02-03T03:50:00;2.40;99.90
5924;DHT22;2987;50.884;14.818;2023-02-03T03:52:30;2.30;99.90
5924;DHT22;2987;50.884;14.818;2023-02-03T03:54:59;2.10;99.90
5924;DHT22;2987;50.884;14.818;2023-02-03T03:57:38;2.10;99.90
5924;DHT22;2987;50.884;14.818;2023-02-03T04:00:10;2.10;99.90
5924;DHT22;2987;50.884;14.818;2023-02-03T04:02:39;2.00;99.90
5924;DHT22;2987;50.884;14.818;2023-02-03T04:05:08;2.10;99.90
5924;DHT22;2987;50.884;14.818;2023-02-03T04:07:41;1.90;99.90
5924;DHT22;2987;50.884;14.818;2023-02-03T04:10:17;2.40;99.90
5924;DHT22;2987;50.884;14.818;2023-02-03T04:12:46;2.30;99.90
5924;DHT22;2987;50.884;14.818;2023-02-03T04:15:12;2.30;99.90
5924;DHT22;2987;50.884;14.818;2023-02-03T04:17:38;2.40;99.90
5924;DHT22;2987;50.884;14.818;2023-02-03T04:20:04;2.40;99.90
5924;DHT22;2987;50.884;14.818;2023-02-03T04:22:31;2.40;99.90
5924;DHT22;2987;50.884;14.818;2023-02-03T04:24:58;2.40;99.90
5924;DHT22;2987;50.884;14.818;2023-02-03T04:27:25;2.40;99.90
5924;DHT22;2987;50.884;14.818;2023-02-03T04:29:51;2.20;99.90
5924;DHT22;2987;50.884;14.818;2023-02-03T04:32:17;2.40;99.90
5924;DHT22;2987;50.884;14.818;2023-02-03T04:34:45;2.40;99.90
5924;DHT22;2987;50.884;14.818;2023-02-03T04:37:11;2.20;99.90
5924;DHT22;2987;50.884;14.818;2023-02-03T04:39:37;2.20;99.90
5924;DHT22;2987;50.884;14.818;2023-02-03T04:42:03;2.20;99.90
5924;DHT22;2987;50.884;14.818;2023-02-03T04:44:30;2.20;99.90
5924;DHT22;2987;50.884;14.818;2023-02-03T04:46:56;1.90;99.90
5924;DHT22;2987;50.884;14.818;2023-02-03T04:49:22;2.20;99.90
5924;DHT22;2987;50.884;14.818;2023-02-03T04:51:48;2.20;99.90
5924;DHT22;2987;50.884;14.818;2023-02-03T04:54:15;2.40;99.90
5924;DHT22;2987;50.884;14.818;2023-02-03T04:56:41;2.20;99.90
5924;DHT22;2987;50.884;14.818;2023-02-03T04:59:07;2.20;99.90
5924;DHT22;2987;50.884;14.818;2023-02-03T05:01:33;2.20;99.90
5924;DHT22;2987;50.884;14.818;2023-02-03T05:03:59;2.30;99.90
5924;DHT22;2987;50.884;14.818;2023-02-03T05:06:27;2.20;99.90
5924;DHT22;2987;50.884;14.818;2023-02-03T05:08:55;2.30;99.90
5924;DHT22;2987;50.884;14.818;2023-02-03T05:11:21;2.20;99.90
5924;DHT22;2987;50.884;14.818;2023-02-03T05:13:47;2.40;99.90
5924;DHT22;2987;50.884;14.818;2023-02-03T05:16:13;2.50;99.90
5924;DHT22;2987;50.884;14.818;2023-02-03T05:18:40;2.40;99.90
5924;DHT22;2987;50.884;14.818;2023-02-03T05:21:06;2.40;99.90
5924;DHT22;2987;50.884;14.818;2023-02-03T05:23:33;2.50;99.90
5924;DHT22;2987;50.884;14.818;2023-02-03T05:25:59;2.40;99.90
5924;DHT22;2987;50.884;14.818;2023-02-03T05:28:25;2.50;99.90
5924;DHT22;2987;50.884;14.818;2023-02-03T05:30:51;2.30;99.90
5924;DHT22;2987;50.884;14.818;2023-02-03T05:33:17;2.20;99.90
5924;DHT22;2987;50.884;14.818;2023-02-03T05:35:43;2.40;99.90
5924;DHT22;2987;50.884;14.818;2023-02-03T05:38:09;2.50;99.90
5924;DHT22;2987;50.884;14.818;2023-02-03T05:40:36;2.40;99.90
5924;DHT22;2987;50.884;14.818;2023-02-03T05:43:22;2.50;99.90
5924;DHT22;2987;50.884;14.818;2023-02-03T05:45:48;2.50;99.90
5924;DHT22;2987;50.884;14.818;2023-02-03T05:48:14;2.40;99.90
5924;DHT22;2987;50.884;14.818;2023-02-03T05:50:40;2.50;99.90
5924;DHT22;2987;50.884;14.818;2023-02-03T05:53:07;2.30;99.90
5924;DHT22;2987;50.884;14.818;2023-02-03T05:55:34;2.50;99.90
5924;DHT22;2987;50.884;14.818;2023-02-03T05:58:00;2.30;99.90
5924;DHT22;2987;50.884;14.818;2023-02-03T06:00:27;2.40;99.90
5924;DHT22;2987;50.884;14.818;2023-02-03T06:02:55;2.50;99.90
5924;DHT22;2987;50.884;14.818;2023-02-03T06:05:22;2.40;99.90
5924;DHT22;2987;50.884;14.818;2023-02-03T06:07:49;2.70;99.90
5924;DHT22;2987;50.884;14.818;2023-02-03T06:10:16;2.20;99.90
5924;DHT22;2987;50.884;14.818;2023-02-03T06:12:43;2.70;99.90
5924;DHT22;2987;50.884;14.818;2023-02-03T06:15:09;2.60;99.90
5924;DHT22;2987;50.884;14.818;2023-02-03T06:17:36;2.70;99.90
5924;DHT22;2987;50.884;14.818;2023-02-03T06:20:04;2.20;99.90
5924;DHT22;2987;50.884;14.818;2023-02-03T06:22:31;2.70;99.90
5924;DHT22;2987;50.884;14.818;2023-02-03T06:24:57;2.70;99.90
5924;DHT22;2987;50.884;14.818;2023-02-03T06:27:23;2.70;99.90
5924;DHT22;2987;50.884;14.818;2023-02-03T06:29:49;2.70;99.90
5924;DHT22;2987;50.884;14.818;2023-02-03T06:32:15;2.60;99.90
5924;DHT22;2987;50.884;14.818;2023-02-03T06:34:42;2.60;99.90
5924;DHT22;2987;50.884;14.818;2023-02-03T06:37:08;2.70;99.90
5924;DHT22;2987;50.884;14.818;2023-02-03T06:39:34;2.70;99.90
5924;DHT22;2987;50.884;14.818;2023-02-03T06:42:00;2.70;99.90
5924;DHT22;2987;50.884;14.818;2023-02-03T06:44:26;2.70;99.90
5924;DHT22;2987;50.884;14.818;2023-02-03T06:46:52;2.70;99.90
5924;DHT22;2987;50.884;14.818;2023-02-03T06:49:19;2.80;99.90
5924;DHT22;2987;50.884;14.818;2023-02-03T06:51:45;2.50;99.90
5924;DHT22;2987;50.884;14.818;2023-02-03T06:54:12;2.60;99.90
5924;DHT22;2987;50.884;14.818;2023-02-03T06:56:38;2.80;99.90
5924;DHT22;2987;50.884;14.818;2023-02-03T06:59:05;2.90;99.90
5924;DHT22;2987;50.884;14.818;2023-02-03T07:01:32;2.90;99.90
5924;DHT22;2987;50.884;14.818;2023-02-03T07:03:58;2.90;99.90
5924;DHT22;2987;50.884;14.818;2023-02-03T07:06:25;2.90;99.90
5924;DHT22;2987;50.884;14.818;2023-02-03T07:08:55;3.00;99.90
5924;DHT22;2987;50.884;14.818;2023-02-03T07:11:22;2.70;99.90
5924;DHT22;2987;50.884;14.818;2023-02-03T07:13:48;3.00;99.90
5924;DHT22;2987;50.884;14.818;2023-02-03T07:16:14;3.00;99.90
5924;DHT22;2987;50.884;14.818;2023-02-03T07:18:40;3.00;99.90
5924;DHT22;2987;50.884;14.818;2023-02-03T07:21:07;2.70;99.90
5924;DHT22;2987;50.884;14.818;2023-02-03T07:23:33;3.00;99.90
5924;DHT22;2987;50.884;14.818;2023-02-03T07:26:01;2.80;99.90
5924;DHT22;2987;50.884;14.818;2023-02-03T07:28:30;2.90;99.90
5924;DHT22;2987;50.884;14.818;2023-02-03T07:30:57;2.80;99.90
5924;DHT22;2987;50.884;14.818;2023-02-03T07:33:23;3.30;99.90
5924;DHT22;2987;50.884;14.818;2023-02-03T07:35:52;3.20;99.90
5924;DHT22;2987;50.884;14.818;2023-02-03T07:38:18;3.20;99.90
5924;DHT22;2987;50.884;14.818;2023-02-03T07:40:45;3.20;99.90
5924;DHT22;2987;50.884;14.818;2023-02-03T07:43:11;3.20;99.90
5924;DHT22;2987;50.884;14.818;2023-02-03T07:45:37;3.30;99.90
5924;DHT22;2987;50.884;14.818;2023-02-03T07:48:03;3.20;99.90
5924;DHT22;2987;50.884;14.818;2023-02-03T07:50:29;3.30;99.90
5924;DHT22;2987;50.884;14.818;2023-02-03T07:52:58;3.50;99.90
5924;DHT22;2987;50.884;14.818;2023-02-03T07:55:25;3.30;99.90
5924;DHT22;2987;50.884;14.818;2023-02-03T07:57:53;3.40;99.90
5924;DHT22;2987;50.884;14.818;2023-02-03T08:00:20;3.50;99.90
5924;DHT22;2987;50.884;14.818;2023-02-03T08:02:46;3.40;99.90
5924;DHT22;2987;50.884;14.818;2023-02-03T08:05:13;3.60;99.90
5924;DHT22;2987;50.884;14.818;2023-02-03T08:07:40;3.50;99.90
5924;DHT22;2987;50.884;14.818;2023-02-03T08:10:07;3.40;99.90
5924;DHT22;2987;50.884;14.818;2023-02-03T08:12:34;3.50;99.90
5924;DHT22;2987;50.884;14.818;2023-02-03T08:15:00;3.40;99.90
5924;DHT22;2987;50.884;14.818;2023-02-03T08:17:27;3.50;99.90
5924;DHT22;2987;50.884;14.818;2023-02-03T08:19:53;3.40;99.90
5924;DHT22;2987;50.884;14.818;2023-02-03T08:22:19;3.30;99.90
5924;DHT22;2987;50.884;14.818;2023-02-03T08:24:46;3.50;99.90
5924;DHT22;2987;50.884;14.818;2023-02-03T08:27:14;3.40;99.90
5924;DHT22;2987;50.884;14.818;2023-02-03T08:29:41;3.50;99.90
5924;DHT22;2987;50.884;14.818;2023-02-03T08:32:10;3.40;99.90
5924;DHT22;2987;50.884;14.818;2023-02-03T08:34:36;3.50;99.90
5924;DHT22;2987;50.884;14.818;2023-02-03T08:37:03;3.40;99.90
5924;DHT22;2987;50.884;14.818;2023-02-03T08:39:29;3.60;99.90
5924;DHT22;2987;50.884;14.818;2023-02-03T08:41:56;3.60;99.90
5924;DHT22;2987;50.884;14.818;2023-02-03T08:44:22;3.80;99.90
5924;DHT22;2987;50.884;14.818;2023-02-03T08:46:49;3.70;99.90
5924;DHT22;2987;50.884;14.818;2023-02-03T08:49:16;3.70;99.90
5924;DHT22;2987;50.884;14.818;2023-02-03T08:51:48;3.70;99.90
5924;DHT22;2987;50.884;14.818;2023-02-03T08:54:14;3.70;99.90
5924;DHT22;2987;50.884;14.818;2023-02-03T08:57:06;3.70;99.90
5924;DHT22;2987;50.884;14.818;2023-02-03T08:59:32;3.80;99.90
5924;DHT22;2987;50.884;14.818;2023-02-03T09:02:03;3.70;99.90
5924;DHT22;2987;50.884;14.818;2023-02-03T09:04:30;3.80;99.90
5924;DHT22;2987;50.884;14.818;2023-02-03T09:06:59;3.80;99.90
5924;DHT22;2987;50.884;14.818;2023-02-03T09:09:27;3.70;99.90
5924;DHT22;2987;50.884;14.818;2023-02-03T09:11:54;3.70;99.90
5924;DHT22;2987;50.884;14.818;2023-02-03T09:14:29;3.80;99.90
5924;DHT22;2987;50.884;14.818;2023-02-03T09:16:56;3.70;99.90
5924;DHT22;2987;50.884;14.818;2023-02-03T09:19:22;3.70;99.90
5924;DHT22;2987;50.884;14.818;2023-02-03T09:21:48;3.70;99.90
5924;DHT22;2987;50.884;14.818;2023-02-03T09:24:18;3.80;99.90
5924;DHT22;2987;50.884;14.818;2023-02-03T09:26:44;4.00;99.90
5924;DHT22;2987;50.884;14.818;2023-02-03T09:29:10;4.00;99.90
5924;DHT22;2987;50.884;14.818;2023-02-03T09:31:36;3.90;99.90
5924;DHT22;2987;50.884;14.818;2023-02-03T09:34:02;3.90;99.90
5924;DHT22;2987;50.884;14.818;2023-02-03T09:36:28;4.00;99.90
5924;DHT22;2987;50.884;14.818;2023-02-03T09:38:56;4.00;99.90
5924;DHT22;2987;50.884;14.818;2023-02-03T09:47:12;4.20;99.90
5924;DHT22;2987;50.884;14.818;2023-02-03T09:55:03;4.70;99.90
5924;DHT22;2987;50.884;14.818;2023-02-03T09:57:46;4.90;99.90
5924;DHT22;2987;50.884;14.818;2023-02-03T10:00:28;4.90;99.90
5924;DHT22;2987;50.884;14.818;2023-02-03T10:03:02;5.50;99.90
5924;DHT22;2987;50.884;14.818;2023-02-03T10:05:44;5.20;99.90
5924;DHT22;2987;50.884;14.818;2023-02-03T10:14:09;5.80;99.90
5924;DHT22;2987;50.884;14.818;2023-02-03T10:19:37;6.00;99.90
5924;DHT22;2987;50.884;14.818;2023-02-03T10:22:10;6.00;99.90
5924;DHT22;2987;50.884;14.818;2023-02-03T10:24:47;6.10;99.90
5924;DHT22;2987;50.884;14.818;2023-02-03T10:27:19;6.10;99.90
5924;DHT22;2987;50.884;14.818;2023-02-03T10:32:37;6.30;99.90
5924;DHT22;2987;50.884;14.818;2023-02-03T10:35:10;6.30;99.90
5924;DHT22;2987;50.884;14.818;2023-02-03T10:37:44;6.20;99.90
5924;DHT22;2987;50.884;14.818;2023-02-03T10:40:15;6.30;99.90
5924;DHT22;2987;50.884;14.818;2023-02-03T10:42:43;6.40;99.90
5924;DHT22;2987;50.884;14.818;2023-02-03T10:45:36;6.40;99.90
5924;DHT22;2987;50.884;14.818;2023-02-03T10:48:04;6.50;99.90
5924;DHT22;2987;50.884;14.818;2023-02-03T10:50:31;6.30;99.90
5924;DHT22;2987;50.884;14.818;2023-02-03T10:53:23;6.30;99.90
5924;DHT22;2987;50.884;14.818;2023-02-03T10:58:36;6.70;99.90
5924;DHT22;2987;50.884;14.818;2023-02-03T11:01:09;6.60;99.90
5924;DHT22;2987;50.884;14.818;2023-02-03T11:03:35;6.50;99.90
5924;DHT22;2987;50.884;14.818;2023-02-03T11:06:06;6.60;99.90
5924;DHT22;2987;50.884;14.818;2023-02-03T11:08:35;6.70;99.90
5924;DHT22;2987;50.884;14.818;2023-02-03T11:11:06;6.80;99.90
5924;DHT22;2987;50.884;14.818;2023-02-03T11:13:33;6.60;99.90
5924;DHT22;2987;50.884;14.818;2023-02-03T11:16:07;6.50;99.90
5924;DHT22;2987;50.884;14.818;2023-02-03T11:18:46;6.80;99.90
5924;DHT22;2987;50.884;14.818;2023-02-03T11:21:20;6.70;99.90
5924;DHT22;2987;50.884;14.818;2023-02-03T11:23:52;6.90;99.90
5924;DHT22;2987;50.884;14.818;2023-02-03T11:26:23;6.90;99.90
5924;DHT22;2987;50.884;14.818;2023-02-03T11:28:55;6.90;99.90
5924;DHT22;2987;50.884;14.818;2023-02-03T11:31:25;6.90;99.90
5924;DHT22;2987;50.884;14.818;2023-02-03T11:33:57;6.90;99.90
5924;DHT22;2987;50.884;14.818;2023-02-03T11:36:25;7.00;99.90
5924;DHT22;2987;50.884;14.818;2023-02-03T11:38:52;7.00;99.90
5924;DHT22;2987;50.884;14.818;2023-02-03T11:41:37;7.00;99.90
5924;DHT22;2987;50.884;14.818;2023-02-03T11:44:18;7.20;99.90
5924;DHT22;2987;50.884;14.818;2023-02-03T11:46:55;7.00;99.90
5924;DHT22;2987;50.884;14.818;2023-02-03T11:49:47;7.00;99.90
5924;DHT22;2987;50.884;14.818;2023-02-03T11:52:53;7.10;99.90
5924;DHT22;2987;50.884;14.818;2023-02-03T11:55:39;7.00;99.90
5924;DHT22;2987;50.884;14.818;2023-02-03T11:58:22;7.30;99.90
5924;DHT22;2987;50.884;14.818;2023-02-03T12:01:11;7.30;99.90
5924;DHT22;2987;50.884;14.818;2023-02-03T12:12:06;7.30;99.90
5924;DHT22;2987;50.884;14.818;2023-02-03T12:14:47;7.20;99.90
5924;DHT22;2987;50.884;14.818;2023-02-03T12:17:33;7.30;99.90
5924;DHT22;2987;50.884;14.818;2023-02-03T12:20:25;7.30;99.90
5924;DHT22;2987;50.884;14.818;2023-02-03T12:23:07;7.30;99.90
5924;DHT22;2987;50.884;14.818;2023-02-03T12:25:59;7.60;99.90
5924;DHT22;2987;50.884;14.818;2023-02-03T12:33:58;7.60;99.90
5924;DHT22;2987;50.884;14.818;2023-02-03T12:36:31;7.60;99.90
5924;DHT22;2987;50.884;14.818;2023-02-03T12:39:13;7.50;99.90
5924;DHT22;2987;50.884;14.818;2023-02-03T12:41:47;7.70;99.90
5924;DHT22;2987;50.884;14.818;2023-02-03T12:44:20;7.50;99.90
5924;DHT22;2987;50.884;14.818;2023-02-03T12:47:01;7.60;99.90
5924;DHT22;2987;50.884;14.818;2023-02-03T12:49:51;7.80;99.90
5924;DHT22;2987;50.884;14.818;2023-02-03T12:52:26;7.50;99.90
5924;DHT22;2987;50.884;14.818;2023-02-03T12:55:05;7.60;99.90
5924;DHT22;2987;50.884;14.818;2023-02-03T12:57:43;7.50;99.90
5924;DHT22;2987;50.884;14.818;2023-02-03T13:00:31;7.20;99.90
5924;DHT22;2987;50.884;14.818;2023-02-03T13:13:56;7.30;99.90
5924;DHT22;2987;50.884;14.818;2023-02-03T13:16:32;7.30;99.90
5924;DHT22;2987;50.884;14.818;2023-02-03T13:19:05;7.20;99.90
5924;DHT22;2987;50.884;14.818;2023-02-03T13:21:32;7.30;99.90
5924;DHT22;2987;50.884;14.818;2023-02-03T13:23:58;7.40;99.90
5924;DHT22;2987;50.884;14.818;2023-02-03T13:26:48;7.50;99.90
5924;DHT22;2987;50.884;14.818;2023-02-03T13:43:35;6.10;99.90
5924;DHT22;2987;50.884;14.818;2023-02-03T13:48:30;5.70;99.90
5924;DHT22;2987;50.884;14.818;2023-02-03T13:51:15;5.50;99.90
5924;DHT22;2987;50.884;14.818;2023-02-03T13:53:45;5.80;99.90
5924;DHT22;2987;50.884;14.818;2023-02-03T13:56:22;5.80;99.90
5924;DHT22;2987;50.884;14.818;2023-02-03T13:59:39;5.80;99.90
5924;DHT22;2987;50.884;14.818;2023-02-03T14:10:16;6.10;99.90
5924;DHT22;2987;50.884;14.818;2023-02-03T14:12:53;5.80;99.90
5924;DHT22;2987;50.884;14.818;2023-02-03T14:15:30;6.10;99.90
5924;DHT22;2987;50.884;14.818;2023-02-03T14:17:59;6.10;99.90
5924;DHT22;2987;50.884;14.818;2023-02-03T14:23:12;6.40;99.90
5924;DHT22;2987;50.884;14.818;2023-02-03T14:25:47;6.20;99.90
5924;DHT22;2987;50.884;14.818;2023-02-03T14:28:17;6.40;99.90
5924;DHT22;2987;50.884;14.818;2023-02-03T14:31:05;6.70;99.90
5924;DHT22;2987;50.884;14.818;2023-02-03T14:36:32;6.70;99.90
5924;DHT22;2987;50.884;14.818;2023-02-03T14:39:04;6.80;99.90
5924;DHT22;2987;50.884;14.818;2023-02-03T14:42:03;7.00;99.90
5924;DHT22;2987;50.884;14.818;2023-02-03T14:44:50;6.90;99.90
5924;DHT22;2987;50.884;14.818;2023-02-03T14:47:59;7.00;99.90
5924;DHT22;2987;50.884;14.818;2023-02-03T14:53:20;6.90;99.90
5924;DHT22;2987;50.884;14.818;2023-02-03T14:58:45;7.10;99.90
5924;DHT22;2987;50.884;14.818;2023-02-03T15:06:47;7.00;99.90
5924;DHT22;2987;50.884;14.818;2023-02-03T15:09:37;6.90;99.90
5924;DHT22;2987;50.884;14.818;2023-02-03T15:12:24;7.00;99.90
5924;DHT22;2987;50.884;14.818;2023-02-03T15:14:52;7.00;99.90
5924;DHT22;2987;50.884;14.818;2023-02-03T15:17:24;6.90;99.90
5924;DHT22;2987;50.884;14.818;2023-02-03T15:25:57;6.70;99.90
5924;DHT22;2987;50.884;14.818;2023-02-03T15:28:28;6.50;99.90
5924;DHT22;2987;50.884;14.818;2023-02-03T15:31:04;6.70;99.90
5924;DHT22;2987;50.884;14.818;2023-02-03T15:33:33;6.20;99.90
5924;DHT22;2987;50.884;14.818;2023-02-03T15:36:05;6.60;99.90
5924;DHT22;2987;50.884;14.818;2023-02-03T15:38:40;6.60;99.90
5924;DHT22;2987;50.884;14.818;2023-02-03T15:41:10;6.40;99.90
5924;DHT22;2987;50.884;14.818;2023-02-03T15:43:41;6.40;99.90
5924;DHT22;2987;50.884;14.818;2023-02-03T15:46:15;6.50;99.90
5924;DHT22;2987;50.884;14.818;2023-02-03T15:48:53;6.30;99.90
5924;DHT22;2987;50.884;14.818;2023-02-03T15:51:26;6.40;99.90
5924;DHT22;2987;50.884;14.818;2023-02-03T15:54:00;6.20;99.90
5924;DHT22;2987;50.884;14.818;2023-02-03T15:56:38;6.00;99.90
5924;DHT22;2987;50.884;14.818;2023-02-03T15:59:19;6.30;99.90
5924;DHT22;2987;50.884;14.818;2023-02-03T16:01:46;6.30;99.90
5924;DHT22;2987;50.884;14.818;2023-02-03T16:04:13;6.20;99.90
5924;DHT22;2987;50.884;14.818;2023-02-03T16:06:43;6.10;99.90
5924;DHT22;2987;50.884;14.818;2023-02-03T16:09:39;6.00;99.90
5924;DHT22;2987;50.884;14.818;2023-02-03T16:12:28;5.90;99.90
5924;DHT22;2987;50.884;14.818;2023-02-03T16:22:39;5.20;99.90
5924;DHT22;2987;50.884;14.818;2023-02-03T16:25:13;5.10;99.90
5924;DHT22;2987;50.884;14.818;2023-02-03T16:27:44;5.40;99.90
5924;DHT22;2987;50.884;14.818;2023-02-03T16:30:20;5.40;99.90
5924;DHT22;2987;50.884;14.818;2023-02-03T16:36:03;5.20;99.90
5924;DHT22;2987;50.884;14.818;2023-02-03T16:38:52;5.10;99.90
5924;DHT22;2987;50.884;14.818;2023-02-03T16:41:37;4.90;99.90
5924;DHT22;2987;50.884;14.818;2023-02-03T16:44:22;5.20;99.90
5924;DHT22;2987;50.884;14.818;2023-02-03T16:47:25;5.00;99.90
5924;DHT22;2987;50.884;14.818;2023-02-03T16:50:13;4.80;99.90
5924;DHT22;2987;50.884;14.818;2023-02-03T16:52:58;4.90;99.90
5924;DHT22;2987;50.884;14.818;2023-02-03T16:55:24;5.00;99.90
5924;DHT22;2987;50.884;14.818;2023-02-03T16:57:50;5.40;99.90
5924;DHT22;2987;50.884;14.818;2023-02-03T17:00:17;5.40;99.90
5924;DHT22;2987;50.884;14.818;2023-02-03T17:02:48;5.20;99.90
5924;DHT22;2987;50.884;14.818;2023-02-03T17:05:15;5.20;99.90
5924;DHT22;2987;50.884;14.818;2023-02-03T17:07:42;5.30;99.90
5924;DHT22;2987;50.884;14.818;2023-02-03T17:10:09;5.70;99.90
5924;DHT22;2987;50.884;14.818;2023-02-03T17:12:35;5.40;99.90
5924;DHT22;2987;50.884;14.818;2023-02-03T17:15:04;5.80;99.90
5924;DHT22;2987;50.884;14.818;2023-02-03T17:17:31;6.00;99.90
5924;DHT22;2987;50.884;14.818;2023-02-03T17:19:57;6.00;99.90
5924;DHT22;2987;50.884;14.818;2023-02-03T17:22:25;6.10;99.90
5924;DHT22;2987;50.884;14.818;2023-02-03T17:24:52;6.10;99.90
5924;DHT22;2987;50.884;14.818;2023-02-03T17:27:19;5.90;99.90
5924;DHT22;2987;50.884;14.818;2023-02-03T17:29:45;5.90;99.90
5924;DHT22;2987;50.884;14.818;2023-02-03T17:32:12;5.90;99.90
5924;DHT22;2987;50.884;14.818;2023-02-03T17:34:40;6.00;99.90
5924;DHT22;2987;50.884;14.818;2023-02-03T17:37:07;6.00;99.90
5924;DHT22;2987;50.884;14.818;2023-02-03T17:39:33;6.10;99.90
5924;DHT22;2987;50.884;14.818;2023-02-03T17:41:59;5.80;99.90
5924;DHT22;2987;50.884;14.818;2023-02-03T17:44:25;6.10;99.90
5924;DHT22;2987;50.884;14.818;2023-02-03T17:46:51;6.00;99.90
5924;DHT22;2987;50.884;14.818;2023-02-03T17:49:17;6.10;99.90
5924;DHT22;2987;50.884;14.818;2023-02-03T17:51:44;5.90;99.90
5924;DHT22;2987;50.884;14.818;2023-02-03T17:54:10;6.00;99.90
5924;DHT22;2987;50.884;14.818;2023-02-03T17:56:36;6.10;99.90
5924;DHT22;2987;50.884;14.818;2023-02-03T17:59:03;6.10;99.90
5924;DHT22;2987;50.884;14.818;2023-02-03T18:01:30;6.30;99.90
5924;DHT22;2987;50.884;14.818;2023-02-03T18:03:59;5.90;99.90
5924;DHT22;2987;50.884;14.818;2023-02-03T18:06:28;6.20;99.90
5924;DHT22;2987;50.884;14.818;2023-02-03T18:08:54;6.40;99.90
5924;DHT22;2987;50.884;14.818;2023-02-03T18:11:27;6.20;99.90
5924;DHT22;2987;50.884;14.818;2023-02-03T18:13:54;6.40;99.90
5924;DHT22;2987;50.884;14.818;2023-02-03T18:16:23;6.10;99.90
5924;DHT22;2987;50.884;14.818;2023-02-03T18:18:52;6.40;99.90
5924;DHT22;2987;50.884;14.818;2023-02-03T18:21:20;6.20;99.90
5924;DHT22;2987;50.884;14.818;2023-02-03T18:23:48;6.30;99.90
5924;DHT22;2987;50.884;14.818;2023-02-03T18:26:17;6.30;99.90
5924;DHT22;2987;50.884;14.818;2023-02-03T18:28:44;6.20;99.90
5924;DHT22;2987;50.884;14.818;2023-02-03T18:31:12;6.30;99.90
5924;DHT22;2987;50.884;14.818;2023-02-03T18:33:42;6.40;99.90
5924;DHT22;2987;50.884;14.818;2023-02-03T18:36:09;6.20;99.90
5924;DHT22;2987;50.884;14.818;2023-02-03T18:38:39;6.30;99.90